createdAt,value
2018-07-15T00:00:28.646Z,101175.34
2018-07-15T00:03:33.229Z,101170.57
2018-07-15T00:06:36.883Z,101169.23
2018-07-15T00:09:40.623Z,101167.62
2018-07-15T00:12:44.433Z,101161.91
2018-07-15T00:15:48.033Z,101159.70
2018-07-15T00:18:51.765Z,101169.84
2018-07-15T00:21:56.387Z,101173.86
2018-07-15T00:25:00.125Z,101175.35
2018-07-15T00:28:04.004Z,101177.05
2018-07-15T00:31:07.824Z,101175.45
2018-07-15T00:34:11.563Z,101170.19
2018-07-15T00:37:15.772Z,101170.95
2018-07-15T00:40:20.761Z,101165.29
2018-07-15T00:43:30.643Z,101164.20
2018-07-15T00:46:35.340Z,101160.77
2018-07-15T00:49:38.892Z,101163.59
2018-07-15T00:52:42.558Z,101162.98
2018-07-15T00:55:47.545Z,101160.42
2018-07-15T00:58:51.362Z,101156.98
2018-07-15T01:01:55.092Z,101159.53
2018-07-15T01:04:58.869Z,101158.55
2018-07-15T01:08:02.461Z,101155.34
2018-07-15T01:11:06.270Z,101154.67
2018-07-15T01:14:11.585Z,101156.47
2018-07-15T01:17:16.245Z,101161.09
2018-07-15T01:20:19.978Z,101159.16
2018-07-15T01:23:23.686Z,101160.73
2018-07-15T01:26:27.390Z,101153.64
2018-07-15T01:29:32.038Z,101154.17
2018-07-15T01:32:37.609Z,101157.33
2018-07-15T01:35:41.166Z,101151.08
2018-07-15T01:38:44.870Z,101149.84
2018-07-15T01:41:49.233Z,101155.71
2018-07-15T01:44:53.914Z,101151.48
2018-07-15T01:47:58.536Z,101151.73
2018-07-15T01:51:02.134Z,101146.03
2018-07-15T01:54:05.828Z,101150.96
2018-07-15T01:57:09.567Z,101145.39
2018-07-15T02:00:14.008Z,101147.55
2018-07-15T02:03:17.636Z,101144.72
2018-07-15T02:06:21.185Z,101146.73
2018-07-15T02:09:24.850Z,101152.45
2018-07-15T02:12:28.409Z,101149.59
2018-07-15T02:15:32.034Z,101152.06
2018-07-15T02:18:35.891Z,101142.95
2018-07-15T02:21:40.177Z,101143.03
2018-07-15T02:24:43.801Z,101139.13
2018-07-15T02:27:47.537Z,101145.73
2018-07-15T02:30:51.207Z,101146.40
2018-07-15T02:33:55.866Z,101140.41
2018-07-15T02:36:59.560Z,101143.60
2018-07-15T02:40:03.157Z,101140.77
2018-07-15T02:43:06.930Z,101150.39
2018-07-15T02:46:10.808Z,101142.84
2018-07-15T02:49:14.513Z,101140.89
2018-07-15T02:52:19.286Z,101132.35
2018-07-15T02:55:25.584Z,101137.84
2018-07-15T02:58:29.463Z,101144.16
2018-07-15T03:01:33.094Z,101141.11
2018-07-15T03:04:36.791Z,101137.91
2018-07-15T03:07:41.491Z,101139.80
2018-07-15T03:10:46.245Z,101141.47
2018-07-15T03:13:50.132Z,101138.31
2018-07-15T03:16:54.361Z,101141.33
2018-07-15T03:19:59.014Z,101137.16
2018-07-15T03:23:02.716Z,101147.02
2018-07-15T03:26:06.485Z,101146.41
2018-07-15T03:29:10.518Z,101148.41
2018-07-15T03:32:14.734Z,101150.69
2018-07-15T03:35:18.919Z,101148.72
2018-07-15T03:38:23.162Z,101153.58
2018-07-15T03:41:27.918Z,101150.43
2018-07-15T03:44:31.703Z,101149.56
2018-07-15T03:47:36.176Z,101150.36
2018-07-15T03:50:40.564Z,101149.56
2018-07-15T03:53:44.448Z,101155.95
2018-07-15T03:56:48.048Z,101151.73
2018-07-15T03:59:51.861Z,101154.64
2018-07-15T04:02:55.559Z,101151.33
2018-07-15T04:06:00.882Z,101156.19
2018-07-15T04:09:05.458Z,101158.04
2018-07-15T04:12:12.303Z,101160.22
2018-07-15T04:15:16.011Z,101159.77
2018-07-15T04:18:19.740Z,101156.84
2018-07-15T04:21:23.490Z,101158.06
2018-07-15T04:24:29.933Z,101159.16
2018-07-15T04:27:33.636Z,101164.05
2018-07-15T04:30:37.924Z,101159.55
2018-07-15T04:33:43.015Z,101157.28
2018-07-15T04:36:46.725Z,101161.25
2018-07-15T04:39:50.380Z,101161.56
2018-07-15T04:42:54.057Z,101164.41
2018-07-15T04:45:57.933Z,101159.24
2018-07-15T04:49:01.717Z,101169.76
2018-07-15T04:52:05.332Z,101166.09
2018-07-15T04:55:09.019Z,101174.52
2018-07-15T04:58:12.849Z,101166.93
2018-07-15T05:01:17.508Z,101167.06
2018-07-15T05:04:21.129Z,101169.91
2018-07-15T05:07:24.841Z,101179.08
2018-07-15T05:10:28.478Z,101179.44
2018-07-15T05:13:33.045Z,101178.23
2018-07-15T05:16:37.124Z,101180.41
2018-07-15T05:19:41.808Z,101181.88
2018-07-15T05:22:45.467Z,101185.07
2018-07-15T05:25:50.197Z,101186.66
2018-07-15T05:28:53.827Z,101188.50
2018-07-15T05:31:58.001Z,101191.09
2018-07-15T05:35:02.686Z,101190.47
2018-07-15T05:38:06.769Z,101188.42
2018-07-15T05:41:11.749Z,101187.69
2018-07-15T05:44:29.657Z,101186.59
2018-07-15T05:47:33.363Z,101182.07
2018-07-15T05:50:36.996Z,101188.41
2018-07-15T05:53:41.653Z,101191.37
2018-07-15T05:56:45.316Z,101192.69
2018-07-15T05:59:48.943Z,101188.41
2018-07-15T06:02:52.940Z,101180.95
2018-07-15T06:05:57.220Z,101188.56
2018-07-15T06:09:00.779Z,101186.95
2018-07-15T06:12:04.667Z,101196.89
2018-07-15T06:15:08.727Z,101188.58
2018-07-15T06:18:12.692Z,101181.45
2018-07-15T06:21:18.117Z,101196.77
2018-07-15T06:24:22.000Z,101190.05
2018-07-15T06:27:26.646Z,101197.23
2018-07-15T06:30:32.183Z,101195.77
2018-07-15T06:33:36.914Z,101200.04
2018-07-15T06:36:41.233Z,101200.13
2018-07-15T06:39:45.309Z,101200.34
2018-07-15T06:42:50.920Z,101204.75
2018-07-15T06:45:54.500Z,101201.10
2018-07-15T06:48:59.057Z,101195.55
2018-07-15T06:52:03.558Z,101191.09
2018-07-15T06:55:07.360Z,101193.09
2018-07-15T06:58:11.399Z,101179.45
2018-07-15T07:01:15.835Z,101180.25
2018-07-15T07:04:19.645Z,101181.81
2018-07-15T07:07:24.351Z,101178.61
2018-07-15T07:10:28.625Z,101181.28
2018-07-15T07:13:32.799Z,101173.01
2018-07-15T07:16:36.654Z,101176.64
2018-07-15T07:19:44.051Z,101178.95
2018-07-15T07:22:47.749Z,101162.35
2018-07-15T07:25:51.524Z,101167.36
2018-07-15T07:28:55.825Z,101175.36
2018-07-15T07:31:59.592Z,101178.89
2018-07-15T07:35:06.220Z,101173.91
2018-07-15T07:38:09.752Z,101160.63
2018-07-15T07:41:13.670Z,101170.66
2018-07-15T07:44:17.221Z,101172.31
2018-07-15T07:47:21.631Z,101165.94
2018-07-15T07:50:25.504Z,101151.44
2018-07-15T07:53:29.208Z,101159.77
2018-07-15T07:56:32.756Z,101163.94
2018-07-15T07:59:36.464Z,101162.85
2018-07-15T08:02:43.139Z,101163.95
2018-07-15T08:05:48.781Z,101152.14
2018-07-15T08:08:53.758Z,101155.91
2018-07-15T08:11:58.833Z,101153.90
2018-07-15T08:15:02.853Z,101157.41
2018-07-15T08:18:06.617Z,101154.62
2018-07-15T08:24:29.328Z,101161.66
2018-07-15T08:27:34.319Z,101157.23
2018-07-15T08:30:49.058Z,101155.75
2018-07-15T08:33:53.280Z,101154.81
2018-07-15T08:36:57.842Z,101148.02
2018-07-15T08:40:02.089Z,101151.48
2018-07-15T08:43:07.092Z,101145.45
2018-07-15T08:46:11.767Z,101150.44
2018-07-15T08:49:15.863Z,101153.33
2018-07-15T08:52:21.660Z,101149.37
2018-07-15T08:55:25.382Z,101142.25
2018-07-15T08:58:30.324Z,101147.82
2018-07-15T09:01:36.932Z,101153.33
2018-07-15T09:04:40.910Z,101148.74
2018-07-15T09:07:46.076Z,101153.40
2018-07-15T09:10:50.566Z,101143.59
2018-07-15T09:13:55.468Z,101143.17
2018-07-15T09:17:00.559Z,101136.64
2018-07-15T09:20:07.153Z,101148.05
2018-07-15T09:23:11.130Z,101144.18
2018-07-15T09:26:14.624Z,101148.60
2018-07-15T09:29:18.617Z,101141.89
2018-07-15T09:32:23.358Z,101144.81
2018-07-15T09:35:26.903Z,101139.57
2018-07-15T09:38:32.984Z,101146.68
2018-07-15T09:41:40.435Z,101143.39
2018-07-15T09:44:44.636Z,101151.17
2018-07-15T09:47:48.238Z,101144.42
2018-07-15T09:50:52.903Z,101136.40
2018-07-15T09:53:56.571Z,101130.89
2018-07-15T09:57:00.078Z,101124.56
2018-07-15T10:00:03.611Z,101136.97
2018-07-15T10:03:07.160Z,101135.48
2018-07-15T10:06:10.693Z,101136.22
2018-07-15T10:09:14.187Z,101138.13
2018-07-15T10:12:17.728Z,101130.89
2018-07-15T10:15:23.170Z,101134.96
2018-07-15T10:18:26.745Z,101133.74
2018-07-15T10:21:30.565Z,101128.63
2018-07-15T10:24:34.264Z,101126.61
2018-07-15T10:27:38.117Z,101126.80
2018-07-15T10:30:41.644Z,101127.59
2018-07-15T10:33:45.489Z,101123.82
2018-07-15T10:36:50.428Z,101112.85
2018-07-15T10:39:54.097Z,101113.33
2018-07-15T10:42:58.448Z,101106.24
2018-07-15T10:46:02.627Z,101103.42
2018-07-15T10:49:06.760Z,101100.28
2018-07-15T10:52:11.177Z,101104.13
2018-07-15T10:55:16.384Z,101111.09
2018-07-15T10:58:21.232Z,101106.24
2018-07-15T11:01:24.992Z,101100.63
2018-07-15T11:04:28.569Z,101086.07
2018-07-15T11:07:33.629Z,101083.42
2018-07-15T11:10:39.487Z,101080.44
2018-07-15T11:13:44.413Z,101084.90
2018-07-15T11:16:49.880Z,101086.76
2018-07-15T11:19:54.091Z,101079.88
2018-07-15T11:22:57.808Z,101076.23
2018-07-15T11:26:02.160Z,101072.59
2018-07-15T11:29:07.268Z,101070.45
2018-07-15T11:32:11.396Z,101076.38
2018-07-15T11:35:18.511Z,101074.55
2018-07-15T11:38:24.340Z,101075.06
2018-07-15T11:41:28.337Z,101069.98
2018-07-15T11:44:32.293Z,101074.50
2018-07-15T11:47:37.320Z,101067.97
2018-07-15T11:50:42.157Z,101068.98
2018-07-15T11:53:49.550Z,101066.26
2018-07-15T11:56:54.080Z,101053.27
2018-07-15T11:59:58.365Z,101061.94
2018-07-15T12:03:03.005Z,101057.27
2018-07-15T12:06:08.291Z,101044.78
2018-07-15T12:09:13.875Z,101047.98
2018-07-15T12:12:21.164Z,101038.20
2018-07-15T12:15:36.984Z,101036.34
2018-07-15T12:19:03.961Z,101030.34
2018-07-15T12:22:10.805Z,101028.52
2018-07-15T12:25:15.848Z,101035.38
2018-07-15T12:28:19.546Z,101024.52
2018-07-15T12:31:24.076Z,101026.85
2018-07-15T12:34:27.869Z,101018.80
2018-07-15T12:37:32.129Z,101016.70
2018-07-15T12:40:36.210Z,101015.76
2018-07-15T12:43:40.928Z,101010.64
2018-07-15T12:46:45.387Z,101012.53
2018-07-15T12:49:51.828Z,101013.08
2018-07-15T12:52:56.771Z,101008.84
2018-07-15T12:56:00.598Z,101000.83
2018-07-15T12:59:04.253Z,100998.95
2018-07-15T13:02:08.158Z,100996.25
2018-07-15T13:05:12.456Z,101001.20
2018-07-15T13:08:17.393Z,100995.17
2018-07-15T13:11:24.526Z,100992.17
2018-07-15T13:14:31.363Z,100992.11
2018-07-15T13:17:35.633Z,100991.09
2018-07-15T13:20:41.389Z,100989.25
2018-07-15T13:23:45.738Z,100977.40
2018-07-15T13:26:51.108Z,100987.30
2018-07-15T13:29:54.745Z,100979.13
2018-07-15T13:32:59.243Z,100982.07
2018-07-15T13:36:04.925Z,100966.86
2018-07-15T13:39:09.410Z,100960.55
2018-07-15T13:42:14.038Z,100969.55
2018-07-15T13:45:22.903Z,100964.52
2018-07-15T13:48:27.584Z,100963.27
2018-07-15T13:51:32.733Z,100963.03
2018-07-15T13:54:37.021Z,100959.70
2018-07-15T13:57:43.782Z,100960.50
2018-07-15T14:00:49.990Z,100957.36
2018-07-15T14:03:54.135Z,100956.20
2018-07-15T14:07:00.661Z,100952.42
2018-07-15T14:10:06.543Z,100952.69
2018-07-15T14:13:15.931Z,100946.56
2018-07-15T14:16:19.716Z,100947.21
2018-07-15T14:19:23.342Z,100943.89
2018-07-15T14:22:27.064Z,100941.67
2018-07-15T14:25:30.782Z,100940.55
2018-07-15T14:28:34.459Z,100929.59
2018-07-15T14:31:38.144Z,100926.41
2018-07-15T14:34:43.216Z,100924.41
2018-07-15T14:37:46.742Z,100920.38
2018-07-15T14:40:50.324Z,100904.87
2018-07-15T14:43:53.922Z,100907.86
2018-07-15T14:46:57.440Z,100910.14
2018-07-15T14:50:01.199Z,100915.31
2018-07-15T14:53:04.911Z,100914.77
2018-07-15T14:56:09.620Z,100914.05
2018-07-15T14:59:14.536Z,100905.83
2018-07-15T15:02:26.933Z,100906.87
2018-07-15T15:08:53.748Z,100899.98
2018-07-15T15:15:46.989Z,100896.03
2018-07-15T15:25:29.857Z,100893.38
2018-07-15T15:28:37.938Z,100890.19
2018-07-15T15:31:46.015Z,100885.58
2018-07-15T15:34:49.754Z,100890.36
2018-07-15T15:38:09.202Z,100884.70
2018-07-15T15:41:15.303Z,100876.23
2018-07-15T15:44:32.258Z,100875.89
2018-07-15T15:47:40.629Z,100865.44
2018-07-15T15:50:56.222Z,100869.27
2018-07-15T15:54:07.535Z,100869.41
2018-07-15T15:57:30.455Z,100863.38
2018-07-15T16:00:44.010Z,100859.70
2018-07-15T16:03:57.465Z,100861.09
2018-07-15T16:07:13.849Z,100846.44
2018-07-15T16:10:42.426Z,100850.34
2018-07-15T16:13:49.891Z,100844.95
2018-07-15T16:17:02.542Z,100838.95
2018-07-15T16:20:17.825Z,100842.41
2018-07-15T16:23:29.933Z,100834.64
2018-07-15T16:26:45.139Z,100836.16
2018-07-15T16:30:13.387Z,100840.43
2018-07-15T16:40:22.261Z,100840.30
2018-07-15T16:43:26.732Z,100843.67
2018-07-15T16:46:40.566Z,100843.09
2018-07-15T16:50:03.461Z,100842.22
2018-07-15T16:56:56.037Z,100837.71
2018-07-15T17:00:04.660Z,100838.62
2018-07-15T17:03:14.719Z,100840.63
2018-07-15T17:06:22.878Z,100833.66
2018-07-15T17:09:32.197Z,100830.20
2018-07-15T17:12:43.864Z,100834.56
2018-07-15T17:15:52.130Z,100842.03
2018-07-15T17:19:00.490Z,100834.93
2018-07-15T17:22:07.784Z,100840.89
2018-07-15T17:25:16.644Z,100837.14
2018-07-15T17:28:28.217Z,100841.45
2018-07-15T17:31:36.210Z,100839.41
2018-07-15T17:34:52.869Z,100837.44
2018-07-15T17:37:58.266Z,100836.47
2018-07-15T17:41:07.725Z,100834.49
2018-07-15T17:44:21.818Z,100839.36
2018-07-15T17:50:42.015Z,100832.42
2018-07-15T17:53:46.271Z,100838.95
2018-07-15T17:56:49.817Z,100844.52
2018-07-15T17:59:53.298Z,100836.04
2018-07-15T18:02:58.639Z,100837.22
2018-07-15T18:06:02.100Z,100840.05
2018-07-15T18:09:06.539Z,100843.36
2018-07-15T18:12:13.047Z,100843.48
2018-07-15T18:15:17.904Z,100842.96
2018-07-15T18:18:22.601Z,100843.64
2018-07-15T18:21:26.986Z,100837.95
2018-07-15T18:24:38.406Z,100843.70
2018-07-15T18:28:26.017Z,100851.38
2018-07-15T18:35:48.737Z,100858.70
2018-07-15T18:42:58.444Z,100869.27
2018-07-15T18:46:15.808Z,100872.19
2018-07-15T18:49:28.512Z,100872.55
2018-07-15T18:52:34.817Z,100880.89
2018-07-15T18:55:40.288Z,100875.14
2018-07-15T18:58:57.605Z,100870.19
2018-07-15T19:02:10.551Z,100877.50
2018-07-15T19:05:20.097Z,100884.13
2018-07-15T19:08:24.336Z,100886.19
2018-07-15T19:11:31.428Z,100880.94
2018-07-15T19:14:38.881Z,100877.67
2018-07-15T19:17:42.820Z,100877.30
2018-07-15T19:20:46.753Z,100877.97
2018-07-15T19:23:51.739Z,100884.69
2018-07-15T19:27:00.018Z,100890.68
2018-07-15T19:30:04.971Z,100896.50
2018-07-15T19:33:13.051Z,100896.30
2018-07-15T19:36:17.316Z,100899.45
2018-07-15T19:39:21.346Z,100903.77
2018-07-15T19:42:26.032Z,100902.20
2018-07-15T19:45:30.305Z,100900.97
2018-07-15T19:48:36.702Z,100899.44
2018-07-15T19:51:40.384Z,100902.61
2018-07-15T19:54:44.206Z,100909.52
2018-07-15T21:16:42.376Z,100907.61
2018-07-15T21:19:48.756Z,100909.81
2018-07-15T21:22:54.683Z,100908.17
2018-07-15T21:26:02.820Z,100910.02
2018-07-15T21:29:07.729Z,100909.23
2018-07-15T21:32:13.811Z,100913.21
2018-07-15T21:35:19.341Z,100911.61
2018-07-15T21:38:24.811Z,100906.03
2018-07-15T21:41:31.216Z,100917.61
2018-07-15T21:44:42.790Z,100914.90
2018-07-15T21:47:47.634Z,100923.03
2018-07-15T21:51:19.273Z,100921.75
2018-07-15T21:54:24.301Z,100924.19
2018-07-15T21:57:29.240Z,100935.41
2018-07-15T22:00:33.464Z,100938.41
2018-07-15T22:03:40.527Z,100946.59
2018-07-15T22:06:55.694Z,100951.23
2018-07-15T22:10:23.496Z,100943.47
2018-07-15T22:13:28.600Z,100943.88
2018-07-15T22:16:32.653Z,100946.94
2018-07-15T22:19:36.883Z,100938.55
2018-07-15T22:22:44.891Z,100945.84
2018-07-15T22:25:52.445Z,100947.61
2018-07-15T22:28:57.427Z,100944.73
2018-07-15T22:32:01.320Z,100945.00
2018-07-15T22:35:05.412Z,100941.73
2018-07-15T22:38:11.762Z,100946.81
2018-07-15T22:41:16.789Z,100947.34
2018-07-15T22:44:20.708Z,100946.94
2018-07-15T22:47:24.586Z,100947.13
2018-07-15T22:50:29.355Z,100944.80
2018-07-15T22:53:33.925Z,100941.52
2018-07-15T22:56:37.887Z,100945.13
2018-07-15T22:59:43.864Z,100942.48
2018-07-15T23:02:47.713Z,100949.58
2018-07-15T23:06:02.769Z,100948.26
2018-07-15T23:09:13.425Z,100938.19
2018-07-15T23:12:17.346Z,100946.33
2018-07-15T23:15:21.741Z,100946.09
2018-07-15T23:18:25.663Z,100940.78
2018-07-15T23:21:30.656Z,100935.97
2018-07-15T23:24:35.420Z,100936.59
2018-07-15T23:27:39.438Z,100942.72
2018-07-15T23:30:45.120Z,100933.72
2018-07-15T23:33:51.209Z,100938.05
2018-07-15T23:36:56.446Z,100936.99
2018-07-15T23:40:00.717Z,100936.70
2018-07-15T23:43:05.038Z,100939.25
2018-07-15T23:46:10.738Z,100930.43
2018-07-15T23:49:16.054Z,100936.34
2018-07-15T23:52:21.292Z,100938.98
2018-07-15T23:55:26.200Z,100936.47
2018-07-15T23:58:30.780Z,100936.47
